sensor_id;sensor_type;location;lat;lon;timestamp;pressure;altitude;pressure_sealevel;temperature;humidity
30636;BME280;17400;52.392;9.750;2023-07-02T00:00:41;99887.44;;;17.61;100.00
30636;BME280;17400;52.392;9.750;2023-07-02T00:03:09;99880.03;;;17.61;100.00
30636;BME280;17400;52.392;9.750;2023-07-02T00:05:37;99878.63;;;17.54;100.00
30636;BME280;17400;52.392;9.750;2023-07-02T00:08:06;99876.13;;;17.47;100.00
30636;BME280;17400;52.392;9.750;2023-07-02T00:10:34;99870.06;;;17.45;100.00
30636;BME280;17400;52.392;9.750;2023-07-02T00:13:02;99873.63;;;17.40;100.00
30636;BME280;17400;52.392;9.750;2023-07-02T00:15:30;99869.53;;;17.43;100.00
30636;BME280;17400;52.392;9.750;2023-07-02T00:17:58;99869.25;;;17.44;100.00
30636;BME280;17400;52.392;9.750;2023-07-02T00:20:26;99880.22;;;17.44;100.00
30636;BME280;17400;52.392;9.750;2023-07-02T00:22:54;99890.59;;;17.42;100.00
30636;BME280;17400;52.392;9.750;2023-07-02T00:25:24;99886.50;;;17.45;100.00
30636;BME280;17400;52.392;9.750;2023-07-02T00:27:54;99881.28;;;17.43;100.00
30636;BME280;17400;52.392;9.750;2023-07-02T00:30:22;99886.69;;;17.33;100.00
30636;BME280;17400;52.392;9.750;2023-07-02T00:32:50;99883.41;;;17.31;100.00
30636;BME280;17400;52.392;9.750;2023-07-02T00:35:18;99888.88;;;17.31;100.00
30636;BME280;17400;52.392;9.750;2023-07-02T00:37:45;99890.00;;;17.35;100.00
30636;BME280;17400;52.392;9.750;2023-07-02T00:40:14;99889.41;;;17.33;100.00
30636;BME280;17400;52.392;9.750;2023-07-02T00:42:43;99891.06;;;17.34;100.00
30636;BME280;17400;52.392;9.750;2023-07-02T00:45:11;99887.28;;;17.40;100.00
30636;BME280;17400;52.392;9.750;2023-07-02T00:47:38;99881.50;;;17.37;100.00
30636;BME280;17400;52.392;9.750;2023-07-02T00:50:07;99890.25;;;17.34;100.00
30636;BME280;17400;52.392;9.750;2023-07-02T00:52:36;99886.94;;;17.31;100.00
30636;BME280;17400;52.392;9.750;2023-07-02T00:55:05;99885.00;;;17.27;100.00
30636;BME280;17400;52.392;9.750;2023-07-02T00:57:33;99877.31;;;17.24;100.00
30636;BME280;17400;52.392;9.750;2023-07-02T01:00:03;99886.31;;;17.19;100.00
30636;BME280;17400;52.392;9.750;2023-07-02T01:02:31;99883.84;;;17.18;100.00
30636;BME280;17400;52.392;9.750;2023-07-02T01:04:59;99880.50;;;17.10;100.00
30636;BME280;17400;52.392;9.750;2023-07-02T01:07:28;99875.03;;;17.10;100.00
30636;BME280;17400;52.392;9.750;2023-07-02T01:09:56;99880.50;;;17.10;100.00
30636;BME280;17400;52.392;9.750;2023-07-02T01:12:25;99875.03;;;17.10;100.00
30636;BME280;17400;52.392;9.750;2023-07-02T01:14:56;99869.28;;;17.07;100.00
30636;BME280;17400;52.392;9.750;2023-07-02T01:17:29;99865.41;;;17.03;100.00
30636;BME280;17400;52.392;9.750;2023-07-02T01:20:07;99862.69;;;17.03;100.00
30636;BME280;17400;52.392;9.750;2023-07-02T01:22:36;99858.28;;;17.02;100.00
30636;BME280;17400;52.392;9.750;2023-07-02T01:25:05;99858.03;;;17.03;100.00
30636;BME280;17400;52.392;9.750;2023-07-02T01:27:35;99864.31;;;17.04;100.00
30636;BME280;17400;52.392;9.750;2023-07-02T01:30:04;99860.22;;;17.06;100.00
30636;BME280;17400;52.392;9.750;2023-07-02T01:32:33;99859.63;;;16.99;100.00
30636;BME280;17400;52.392;9.750;2023-07-02T01:35:03;99858.78;;;16.98;100.00
30636;BME280;17400;52.392;9.750;2023-07-02T01:37:33;99868.91;;;16.98;100.00
30636;BME280;17400;52.392;9.750;2023-07-02T01:40:04;99866.13;;;16.93;100.00
30636;BME280;17400;52.392;9.750;2023-07-02T01:42:33;99864.41;;;16.87;100.00
30636;BME280;17400;52.392;9.750;2023-07-02T01:45:00;99872.59;;;16.81;100.00
30636;BME280;17400;52.392;9.750;2023-07-02T01:47:29;99877.19;;;16.81;100.00
30636;BME280;17400;52.392;9.750;2023-07-02T01:49:57;99873.72;;;16.86;100.00
30636;BME280;17400;52.392;9.750;2023-07-02T01:52:25;99872.06;;;16.85;100.00
30636;BME280;17400;52.392;9.750;2023-07-02T01:54:54;99882.94;;;16.79;100.00
30636;BME280;17400;52.392;9.750;2023-07-02T01:57:21;99883.75;;;16.80;100.00
30636;BME280;17400;52.392;9.750;2023-07-02T01:59:49;99876.34;;;16.75;100.00
30636;BME280;17400;52.392;9.750;2023-07-02T02:02:17;99880.97;;;16.75;100.00
30636;BME280;17400;52.392;9.750;2023-07-02T02:04:45;99885.88;;;16.73;100.00
30636;BME280;17400;52.392;9.750;2023-07-02T02:07:13;99880.41;;;16.73;100.00
30636;BME280;17400;52.392;9.750;2023-07-02T02:09:41;99888.34;;;16.74;100.00
30636;BME280;17400;52.392;9.750;2023-07-02T02:12:10;99885.34;;;16.76;100.00
30636;BME280;17400;52.392;9.750;2023-07-02T02:14:39;99882.34;;;16.77;100.00
30636;BME280;17400;52.392;9.750;2023-07-02T02:17:07;99889.16;;;16.75;100.00
30636;BME280;17400;52.392;9.750;2023-07-02T02:19:35;99891.66;;;16.76;100.00
30636;BME280;17400;52.392;9.750;2023-07-02T02:22:05;99890.53;;;16.72;100.00
30636;BME280;17400;52.392;9.750;2023-07-02T02:24:33;99889.47;;;16.78;100.00
30636;BME280;17400;52.392;9.750;2023-07-02T02:27:01;99894.13;;;16.78;100.00
30636;BME280;17400;52.392;9.750;2023-07-02T02:29:30;99894.34;;;16.71;100.00
30636;BME280;17400;52.392;9.750;2023-07-02T02:31:58;99891.09;;;16.74;100.00
30636;BME280;17400;52.392;9.750;2023-07-02T02:34:27;99890.28;;;16.74;100.00
30636;BME280;17400;52.392;9.750;2023-07-02T02:36:56;99886.63;;;16.68;100.00
30636;BME280;17400;52.392;9.750;2023-07-02T02:39:24;99890.75;;;16.71;100.00
30636;BME280;17400;52.392;9.750;2023-07-02T02:41:51;99887.53;;;16.74;100.00
30636;BME280;17400;52.392;9.750;2023-07-02T02:44:19;99893.28;;;16.77;100.00
30636;BME280;17400;52.392;9.750;2023-07-02T02:46:49;99891.66;;;16.76;100.00
30636;BME280;17400;52.392;9.750;2023-07-02T02:49:16;99893.28;;;16.77;100.00
30636;BME280;17400;52.392;9.750;2023-07-02T02:51:44;99887.28;;;16.75;100.00
30636;BME280;17400;52.392;9.750;2023-07-02T02:54:12;99884.81;;;16.74;100.00
30636;BME280;17400;52.392;9.750;2023-07-02T02:56:40;99882.88;;;16.74;100.00
30636;BME280;17400;52.392;9.750;2023-07-02T02:59:08;99885.66;;;16.79;100.00
30636;BME280;17400;52.392;9.750;2023-07-02T03:01:35;99884.59;;;16.80;100.00
30636;BME280;17400;52.392;9.750;2023-07-02T03:04:05;99884.00;;;16.78;100.00
30636;BME280;17400;52.392;9.750;2023-07-02T03:06:34;99889.78;;;16.82;100.00
30636;BME280;17400;52.392;9.750;2023-07-02T03:09:02;99880.50;;;16.83;100.00
30636;BME280;17400;52.392;9.750;2023-07-02T03:11:30;99888.44;;;16.85;100.00
30636;BME280;17400;52.392;9.750;2023-07-02T03:13:58;99895.03;;;16.89;100.00
30636;BME280;17400;52.392;9.750;2023-07-02T03:16:26;99891.50;;;16.88;100.00
30636;BME280;17400;52.392;9.750;2023-07-02T03:18:53;99887.47;;;16.91;100.00
30636;BME280;17400;52.392;9.750;2023-07-02T03:21:22;99895.41;;;16.92;100.00
30636;BME280;17400;52.392;9.750;2023-07-02T03:23:50;99894.06;;;16.95;100.00
30636;BME280;17400;52.392;9.750;2023-07-02T03:26:18;99897.19;;;16.87;100.00
30636;BME280;17400;52.392;9.750;2023-07-02T03:28:47;99897.78;;;16.89;100.00
30636;BME280;17400;52.392;9.750;2023-07-02T03:31:14;99901.31;;;16.89;100.00
30636;BME280;17400;52.392;9.750;2023-07-02T03:33:43;99899.22;;;16.91;100.00
30636;BME280;17400;52.392;9.750;2023-07-02T03:36:10;99893.13;;;16.89;100.00
30636;BME280;17400;52.392;9.750;2023-07-02T03:38:39;99892.41;;;16.94;100.00
30636;BME280;17400;52.392;9.750;2023-07-02T03:41:07;99885.28;;;16.93;100.00
30636;BME280;17400;52.392;9.750;2023-07-02T03:43:35;99900.00;;;16.92;100.00
30636;BME280;17400;52.392;9.750;2023-07-02T03:46:03;99888.31;;;16.96;100.00
30636;BME280;17400;52.392;9.750;2023-07-02T03:48:31;99890.53;;;16.99;100.00
30636;BME280;17400;52.392;9.750;2023-07-02T03:51:00;99882.59;;;16.98;100.00
30636;BME280;17400;52.392;9.750;2023-07-02T03:53:28;99894.34;;;16.98;100.00
30636;BME280;17400;52.392;9.750;2023-07-02T03:55:58;99891.88;;;16.97;100.00
30636;BME280;17400;52.392;9.750;2023-07-02T03:58:25;99890.78;;;16.98;100.00
30636;BME280;17400;52.392;9.750;2023-07-02T04:00:53;99890.78;;;16.98;100.00
30636;BME280;17400;52.392;9.750;2023-07-02T04:03:21;99891.66;;;17.04;100.00
30636;BME280;17400;52.392;9.750;2023-07-02T04:05:49;99902.59;;;17.04;100.00
30636;BME280;17400;52.392;9.750;2023-07-02T04:08:17;99921.19;;;17.02;100.00
30636;BME280;17400;52.392;9.750;2023-07-02T04:10:47;99912.66;;;16.98;100.00
30636;BME280;17400;52.392;9.750;2023-07-02T04:13:17;99914.59;;;16.97;100.00
30636;BME280;17400;52.392;9.750;2023-07-02T04:15:45;99908.53;;;16.95;100.00
30636;BME280;17400;52.392;9.750;2023-07-02T04:18:13;99907.41;;;16.91;100.00
30636;BME280;17400;52.392;9.750;2023-07-02T04:20:41;99898.41;;;16.96;100.00
30636;BME280;17400;52.392;9.750;2023-07-02T04:23:09;99898.19;;;16.97;100.00
30636;BME280;17400;52.392;9.750;2023-07-02T04:25:37;99900.91;;;16.97;100.00
30636;BME280;17400;52.392;9.750;2023-07-02T04:28:27;99906.44;;;17.03;100.00
30636;BME280;17400;52.392;9.750;2023-07-02T04:30:56;99906.44;;;17.08;100.00
30636;BME280;17400;52.392;9.750;2023-07-02T04:33:24;99905.91;;;17.06;100.00
30636;BME280;17400;52.392;9.750;2023-07-02T04:35:52;99906.44;;;17.03;100.00
30636;BME280;17400;52.392;9.750;2023-07-02T04:38:20;99906.88;;;16.94;100.00
30636;BME280;17400;52.392;9.750;2023-07-02T04:40:48;99909.31;;;16.91;100.00
30636;BME280;17400;52.392;9.750;2023-07-02T04:43:18;99912.59;;;16.93;100.00
30636;BME280;17400;52.392;9.750;2023-07-02T04:45:49;99916.88;;;16.83;100.00
30636;BME280;17400;52.392;9.750;2023-07-02T04:48:16;99919.84;;;16.82;100.00
30636;BME280;17400;52.392;9.750;2023-07-02T04:50:45;99922.53;;;16.77;100.00
30636;BME280;17400;52.392;9.750;2023-07-02T04:53:13;99928.81;;;16.77;100.00
30636;BME280;17400;52.392;9.750;2023-07-02T04:55:41;99927.94;;;16.72;100.00
30636;BME280;17400;52.392;9.750;2023-07-02T04:58:09;99934.25;;;16.72;100.00
30636;BME280;17400;52.392;9.750;2023-07-02T05:00:37;99930.41;;;16.73;100.00
30636;BME280;17400;52.392;9.750;2023-07-02T05:03:07;99933.94;;;16.69;100.00
30636;BME280;17400;52.392;9.750;2023-07-02T05:05:35;99941.34;;;16.73;100.00
30636;BME280;17400;52.392;9.750;2023-07-02T05:08:03;99932.88;;;16.70;100.00
30636;BME280;17400;52.392;9.750;2023-07-02T05:10:31;99933.16;;;16.73;100.00
30636;BME280;17400;52.392;9.750;2023-07-02T05:12:59;99940.34;;;16.79;100.00
30636;BME280;17400;52.392;9.750;2023-07-02T05:15:27;99933.22;;;16.78;100.00
30636;BME280;17400;52.392;9.750;2023-07-02T05:17:55;99938.19;;;16.81;100.00
30636;BME280;17400;52.392;9.750;2023-07-02T05:20:25;99943.66;;;16.81;100.00
30636;BME280;17400;52.392;9.750;2023-07-02T05:22:53;99944.25;;;16.89;100.00
30636;BME280;17400;52.392;9.750;2023-07-02T05:25:21;99942.84;;;16.86;100.00
30636;BME280;17400;52.392;9.750;2023-07-02T05:27:49;99950.25;;;16.86;100.00
30636;BME280;17400;52.392;9.750;2023-07-02T05:30:17;99937.66;;;16.85;100.00
30636;BME280;17400;52.392;9.750;2023-07-02T05:32:45;99948.06;;;16.88;100.00
30636;BME280;17400;52.392;9.750;2023-07-02T05:35:13;99948.53;;;16.79;100.00
30636;BME280;17400;52.392;9.750;2023-07-02T05:37:42;99939.81;;;16.82;100.00
30636;BME280;17400;52.392;9.750;2023-07-02T05:40:12;99942.75;;;16.76;100.00
30636;BME280;17400;52.392;9.750;2023-07-02T05:42:43;99948.16;;;16.71;100.00
30636;BME280;17400;52.392;9.750;2023-07-02T05:45:11;99946.25;;;16.71;100.00
30636;BME280;17400;52.392;9.750;2023-07-02T05:47:39;99949.25;;;16.70;100.00
30636;BME280;17400;52.392;9.750;2023-07-02T05:50:08;99944.00;;;16.63;100.00
30636;BME280;17400;52.392;9.750;2023-07-02T05:52:36;99947.19;;;16.82;100.00
30636;BME280;17400;52.392;9.750;2023-07-02T05:55:07;99952.81;;;16.92;100.00
30636;BME280;17400;52.392;9.750;2023-07-02T05:57:39;99959.66;;;16.95;100.00
30636;BME280;17400;52.392;9.750;2023-07-02T06:00:08;99955.81;;;16.91;100.00
30636;BME280;17400;52.392;9.750;2023-07-02T06:02:36;99960.59;;;17.06;100.00
30636;BME280;17400;52.392;9.750;2023-07-02T06:05:05;99961.66;;;17.05;100.00
30636;BME280;17400;52.392;9.750;2023-07-02T06:07:33;99962.63;;;17.21;100.00
30636;BME280;17400;52.392;9.750;2023-07-02T06:10:01;99975.91;;;17.39;100.00
30636;BME280;17400;52.392;9.750;2023-07-02T06:12:30;99963.19;;;17.55;100.00
30636;BME280;17400;52.392;9.750;2023-07-02T06:14:58;99967.94;;;17.65;100.00
30636;BME280;17400;52.392;9.750;2023-07-02T06:17:26;99972.28;;;17.66;100.00
30636;BME280;17400;52.392;9.750;2023-07-02T06:19:54;99979.13;;;17.63;100.00
30636;BME280;17400;52.392;9.750;2023-07-02T06:22:22;99982.91;;;17.57;100.00
30636;BME280;17400;52.392;9.750;2023-07-02T06:24:50;99981.56;;;17.60;100.00
30636;BME280;17400;52.392;9.750;2023-07-02T06:27:18;99977.75;;;17.61;100.00
30636;BME280;17400;52.392;9.750;2023-07-02T06:29:47;99970.88;;;17.58;100.00
30636;BME280;17400;52.392;9.750;2023-07-02T06:32:16;99976.38;;;17.63;100.00
30636;BME280;17400;52.392;9.750;2023-07-02T06:34:44;99983.81;;;17.68;100.00
30636;BME280;17400;52.392;9.750;2023-07-02T06:37:13;99979.19;;;17.74;100.00
30636;BME280;17400;52.392;9.750;2023-07-02T06:39:40;99986.13;;;17.87;100.00
30636;BME280;17400;52.392;9.750;2023-07-02T06:42:08;99973.91;;;17.94;100.00
30636;BME280;17400;52.392;9.750;2023-07-02T06:44:36;99984.22;;;17.87;100.00
30636;BME280;17400;52.392;9.750;2023-07-02T06:47:06;99978.41;;;17.78;100.00
30636;BME280;17400;52.392;9.750;2023-07-02T06:49:34;99979.50;;;17.77;100.00
30636;BME280;17400;52.392;9.750;2023-07-02T06:52:02;99994.34;;;17.87;100.00
30636;BME280;17400;52.392;9.750;2023-07-02T06:54:30;99988.03;;;17.81;100.00
30636;BME280;17400;52.392;9.750;2023-07-02T06:56:58;99997.34;;;17.85;100.00
30636;BME280;17400;52.392;9.750;2023-07-02T06:59:26;100001.00;;;17.96;100.00
30636;BME280;17400;52.392;9.750;2023-07-02T07:01:53;100010.00;;;17.91;98.42
30636;BME280;17400;52.392;9.750;2023-07-02T07:04:23;100013.63;;;17.97;99.77
30636;BME280;17400;52.392;9.750;2023-07-02T07:06:51;100008.72;;;18.04;100.00
30636;BME280;17400;52.392;9.750;2023-07-02T07:09:19;100009.94;;;18.24;100.00
30636;BME280;17400;52.392;9.750;2023-07-02T07:11:47;100010.03;;;18.39;100.00
30636;BME280;17400;52.392;9.750;2023-07-02T07:14:15;100009.41;;;18.27;100.00
30636;BME280;17400;52.392;9.750;2023-07-02T07:16:43;100013.72;;;18.18;100.00
30636;BME280;17400;52.392;9.750;2023-07-02T07:19:12;100013.25;;;18.26;100.00
30636;BME280;17400;52.392;9.750;2023-07-02T07:21:41;100011.66;;;18.35;100.00
30636;BME280;17400;52.392;9.750;2023-07-02T07:24:10;100028.03;;;18.25;100.00
30636;BME280;17400;52.392;9.750;2023-07-02T07:26:39;100024.69;;;18.12;100.00
30636;BME280;17400;52.392;9.750;2023-07-02T07:29:06;100017.63;;;18.22;100.00
30636;BME280;17400;52.392;9.750;2023-07-02T07:31:35;100026.13;;;18.25;100.00
30636;BME280;17400;52.392;9.750;2023-07-02T07:34:03;100032.78;;;18.45;100.00
30636;BME280;17400;52.392;9.750;2023-07-02T07:36:31;100020.44;;;18.42;100.00
30636;BME280;17400;52.392;9.750;2023-07-02T07:39:00;100031.13;;;18.44;100.00
30636;BME280;17400;52.392;9.750;2023-07-02T07:41:28;100036.34;;;18.45;96.08
30636;BME280;17400;52.392;9.750;2023-07-02T07:43:59;100029.19;;;18.34;94.69
30636;BME280;17400;52.392;9.750;2023-07-02T07:46:28;100031.97;;;18.39;94.72
30636;BME280;17400;52.392;9.750;2023-07-02T07:48:56;100030.88;;;18.45;92.09
30636;BME280;17400;52.392;9.750;2023-07-02T07:51:24;100038.03;;;18.52;91.97
30636;BME280;17400;52.392;9.750;2023-07-02T07:53:56;100033.13;;;18.54;87.17
30636;BME280;17400;52.392;9.750;2023-07-02T07:56:26;100040.00;;;18.67;87.73
30636;BME280;17400;52.392;9.750;2023-07-02T07:58:53;100046.34;;;18.67;86.10
30636;BME280;17400;52.392;9.750;2023-07-02T08:01:21;100043.88;;;18.65;84.03
30636;BME280;17400;52.392;9.750;2023-07-02T08:03:52;100055.09;;;18.69;82.17
30636;BME280;17400;52.392;9.750;2023-07-02T08:06:20;100051.56;;;18.69;83.34
30636;BME280;17400;52.392;9.750;2023-07-02T08:08:48;100044.72;;;18.71;83.91
30636;BME280;17400;52.392;9.750;2023-07-02T08:11:18;100063.31;;;18.69;84.11
30636;BME280;17400;52.392;9.750;2023-07-02T08:13:47;100057.34;;;18.72;86.23
30636;BME280;17400;52.392;9.750;2023-07-02T08:16:19;100061.75;;;18.84;81.34
30636;BME280;17400;52.392;9.750;2023-07-02T08:18:47;100062.13;;;18.97;80.31
30636;BME280;17400;52.392;9.750;2023-07-02T08:21:15;100051.69;;;19.05;79.45
30636;BME280;17400;52.392;9.750;2023-07-02T08:23:43;100062.44;;;19.17;79.14
30636;BME280;17400;52.392;9.750;2023-07-02T08:26:13;100064.09;;;19.18;76.90
30636;BME280;17400;52.392;9.750;2023-07-02T08:28:41;100065.19;;;19.22;76.45
30636;BME280;17400;52.392;9.750;2023-07-02T08:31:12;100056.72;;;19.34;76.62
30636;BME280;17400;52.392;9.750;2023-07-02T08:33:40;100056.97;;;19.27;69.99
30636;BME280;17400;52.392;9.750;2023-07-02T08:36:12;100052.31;;;19.27;65.91
30636;BME280;17400;52.392;9.750;2023-07-02T08:38:40;100072.88;;;19.30;70.16
30636;BME280;17400;52.392;9.750;2023-07-02T08:41:12;100076.72;;;19.34;70.62
30636;BME280;17400;52.392;9.750;2023-07-02T08:43:40;100085.81;;;19.29;72.23
30636;BME280;17400;52.392;9.750;2023-07-02T08:46:14;100071.25;;;19.39;70.53
30636;BME280;17400;52.392;9.750;2023-07-02T08:48:43;100074.59;;;19.52;70.59
30636;BME280;17400;52.392;9.750;2023-07-02T08:51:14;100072.91;;;19.40;64.13
30636;BME280;17400;52.392;9.750;2023-07-02T08:53:43;100090.50;;;19.50;69.26
30636;BME280;17400;52.392;9.750;2023-07-02T08:56:11;100090.22;;;19.41;62.52
30636;BME280;17400;52.392;9.750;2023-07-02T08:58:39;100094.88;;;19.40;58.18
30636;BME280;17400;52.392;9.750;2023-07-02T09:01:07;100100.09;;;19.47;58.07
30636;BME280;17400;52.392;9.750;2023-07-02T09:03:38;100099.53;;;19.35;57.49
30636;BME280;17400;52.392;9.750;2023-07-02T09:06:09;100100.34;;;19.30;57.27
30636;BME280;17400;52.392;9.750;2023-07-02T09:08:39;100100.31;;;19.25;61.05
30636;BME280;17400;52.392;9.750;2023-07-02T09:11:08;100101.69;;;19.17;60.85
30636;BME280;17400;52.392;9.750;2023-07-02T09:13:42;100104.72;;;19.26;60.57
30636;BME280;17400;52.392;9.750;2023-07-02T09:16:21;100098.94;;;19.22;59.07
30636;BME280;17400;52.392;9.750;2023-07-02T09:18:57;100105.25;;;19.23;60.89
30636;BME280;17400;52.392;9.750;2023-07-02T09:21:26;100087.44;;;19.25;58.17
30636;BME280;17400;52.392;9.750;2023-07-02T09:23:55;100112.94;;;19.21;59.17
30636;BME280;17400;52.392;9.750;2023-07-02T09:26:26;100103.59;;;19.17;58.95
30636;BME280;17400;52.392;9.750;2023-07-02T09:29:00;100103.00;;;19.04;59.50
30636;BME280;17400;52.392;9.750;2023-07-02T09:31:28;100116.19;;;19.07;61.08
30636;BME280;17400;52.392;9.750;2023-07-02T09:34:02;100109.59;;;19.08;62.94
30636;BME280;17400;52.392;9.750;2023-07-02T09:36:30;100112.38;;;19.13;63.53
30636;BME280;17400;52.392;9.750;2023-07-02T09:39:00;100107.19;;;19.27;63.04
30636;BME280;17400;52.392;9.750;2023-07-02T09:41:28;100117.41;;;19.47;63.53
30636;BME280;17400;52.392;9.750;2023-07-02T09:43:56;100108.34;;;19.52;61.26
30636;BME280;17400;52.392;9.750;2023-07-02T09:46:24;100105.84;;;19.40;59.85
30636;BME280;17400;52.392;9.750;2023-07-02T09:48:53;100109.13;;;19.32;59.45
30636;BME280;17400;52.392;9.750;2023-07-02T09:51:23;100111.06;;;19.31;59.29
30636;BME280;17400;52.392;9.750;2023-07-02T09:53:52;100113.50;;;19.23;59.06
30636;BME280;17400;52.392;9.750;2023-07-02T09:56:20;100118.19;;;19.33;58.06
30636;BME280;17400;52.392;9.750;2023-07-02T09:58:48;100116.28;;;19.48;60.49
30636;BME280;17400;52.392;9.750;2023-07-02T10:01:16;100117.69;;;19.56;57.23
30636;BME280;17400;52.392;9.750;2023-07-02T10:03:44;100119.38;;;19.68;57.87
30636;BME280;17400;52.392;9.750;2023-07-02T10:06:12;100114.41;;;19.64;55.75
30636;BME280;17400;52.392;9.750;2023-07-02T10:08:52;100136.63;;;19.53;55.72
30636;BME280;17400;52.392;9.750;2023-07-02T10:11:20;100144.28;;;19.40;56.36
30636;BME280;17400;52.392;9.750;2023-07-02T10:13:57;100144.78;;;19.27;54.80
30636;BME280;17400;52.392;9.750;2023-07-02T10:16:26;100138.50;;;19.42;54.89
30636;BME280;17400;52.392;9.750;2023-07-02T10:18:54;100133.59;;;19.44;54.43
30636;BME280;17400;52.392;9.750;2023-07-02T10:21:22;100142.91;;;19.43;55.55
30636;BME280;17400;52.392;9.750;2023-07-02T10:23:51;100145.41;;;19.55;54.52
30636;BME280;17400;52.392;9.750;2023-07-02T10:26:19;100140.78;;;19.76;55.25
30636;BME280;17400;52.392;9.750;2023-07-02T10:28:57;100154.28;;;19.88;52.85
30636;BME280;17400;52.392;9.750;2023-07-02T10:31:25;100139.97;;;19.80;51.54
30636;BME280;17400;52.392;9.750;2023-07-02T10:33:54;100144.63;;;19.80;51.03
30636;BME280;17400;52.392;9.750;2023-07-02T10:36:23;100141.88;;;19.80;50.90
30636;BME280;17400;52.392;9.750;2023-07-02T10:38:53;100147.97;;;19.87;51.90
30636;BME280;17400;52.392;9.750;2023-07-02T10:41:25;100148.22;;;19.86;51.98
30636;BME280;17400;52.392;9.750;2023-07-02T10:43:53;100156.75;;;19.89;52.06
30636;BME280;17400;52.392;9.750;2023-07-02T10:46:22;100143.84;;;19.95;51.91
30636;BME280;17400;52.392;9.750;2023-07-02T10:48:53;100150.72;;;19.92;51.51
30636;BME280;17400;52.392;9.750;2023-07-02T10:51:22;100166.38;;;19.97;51.02
30636;BME280;17400;52.392;9.750;2023-07-02T10:53:58;100149.91;;;19.92;51.31
30636;BME280;17400;52.392;9.750;2023-07-02T10:56:28;100161.44;;;19.94;51.60
30636;BME280;17400;52.392;9.750;2023-07-02T10:58:56;100163.91;;;19.95;52.36
30636;BME280;17400;52.392;9.750;2023-07-02T11:01:25;100164.47;;;19.87;52.73
30636;BME280;17400;52.392;9.750;2023-07-02T11:03:58;100160.34;;;19.90;53.50
30636;BME280;17400;52.392;9.750;2023-07-02T11:06:28;100154.84;;;19.95;53.56
30636;BME280;17400;52.392;9.750;2023-07-02T11:08:59;100157.88;;;20.09;53.44
30636;BME280;17400;52.392;9.750;2023-07-02T11:11:28;100154.56;;;20.22;53.59
30636;BME280;17400;52.392;9.750;2023-07-02T11:13:55;100151.25;;;20.25;52.99
30636;BME280;17400;52.392;9.750;2023-07-02T11:16:25;100157.59;;;20.21;53.17
30636;BME280;17400;52.392;9.750;2023-07-02T11:19:06;100154.28;;;20.19;53.61
30636;BME280;17400;52.392;9.750;2023-07-02T11:21:34;100150.44;;;20.14;52.85
30636;BME280;17400;52.392;9.750;2023-07-02T11:24:05;100151.00;;;20.17;52.09
30636;BME280;17400;52.392;9.750;2023-07-02T11:26:35;100146.31;;;20.17;51.73
30636;BME280;17400;52.392;9.750;2023-07-02T11:29:03;100146.59;;;20.21;51.31
30636;BME280;17400;52.392;9.750;2023-07-02T11:31:32;100149.88;;;20.23;52.65
30636;BME280;17400;52.392;9.750;2023-07-02T11:34:00;100161.72;;;20.18;52.38
30636;BME280;17400;52.392;9.750;2023-07-02T11:36:28;100171.34;;;20.10;52.02
30636;BME280;17400;52.392;9.750;2023-07-02T11:38:55;100173.53;;;20.13;52.07
30636;BME280;17400;52.392;9.750;2023-07-02T11:41:24;100165.56;;;20.22;51.76
30636;BME280;17400;52.392;9.750;2023-07-02T11:43:52;100168.59;;;20.21;51.13
30636;BME280;17400;52.392;9.750;2023-07-02T11:46:20;100161.16;;;20.31;51.63
30636;BME280;17400;52.392;9.750;2023-07-02T11:48:48;100169.69;;;20.35;51.73
30636;BME280;17400;52.392;9.750;2023-07-02T11:51:16;100160.34;;;20.36;51.52
30636;BME280;17400;52.392;9.750;2023-07-02T11:53:43;100176.28;;;20.34;50.95
30636;BME280;17400;52.392;9.750;2023-07-02T11:56:11;100176.84;;;20.31;51.24
30636;BME280;17400;52.392;9.750;2023-07-02T11:58:42;100176.28;;;20.24;51.73
30636;BME280;17400;52.392;9.750;2023-07-02T12:01:09;100170.50;;;20.46;51.57
30636;BME280;17400;52.392;9.750;2023-07-02T12:03:41;100179.00;;;20.70;50.52
30636;BME280;17400;52.392;9.750;2023-07-02T12:06:09;100176.50;;;20.89;49.00
30636;BME280;17400;52.392;9.750;2023-07-02T12:08:36;100174.56;;;20.90;48.07
30636;BME280;17400;52.392;9.750;2023-07-02T12:11:04;100160.81;;;20.95;48.71
30636;BME280;17400;52.392;9.750;2023-07-02T12:13:32;100177.06;;;20.86;48.77
30636;BME280;17400;52.392;9.750;2023-07-02T12:16:01;100179.56;;;20.83;48.83
30636;BME280;17400;52.392;9.750;2023-07-02T12:18:29;100175.63;;;21.04;47.36
30636;BME280;17400;52.392;9.750;2023-07-02T12:20:57;100160.81;;;21.60;46.09
30636;BME280;17400;52.392;9.750;2023-07-02T12:23:25;100164.09;;;22.02;44.83
30636;BME280;17400;52.392;9.750;2023-07-02T12:25:53;100176.59;;;21.89;45.01
30636;BME280;17400;52.392;9.750;2023-07-02T12:28:20;100185.50;;;22.16;44.56
30636;BME280;17400;52.392;9.750;2023-07-02T12:30:49;100179.47;;;22.48;43.89
30636;BME280;17400;52.392;9.750;2023-07-02T12:33:18;100177.94;;;22.90;42.56
30636;BME280;17400;52.392;9.750;2023-07-02T12:35:46;100182.72;;;23.09;41.14
30636;BME280;17400;52.392;9.750;2023-07-02T12:38:14;100184.00;;;23.41;41.12
30636;BME280;17400;52.392;9.750;2023-07-02T12:40:42;100179.63;;;23.16;40.90
30636;BME280;17400;52.392;9.750;2023-07-02T12:43:10;100192.50;;;22.96;41.50
30636;BME280;17400;52.392;9.750;2023-07-02T12:45:38;100179.38;;;22.58;41.71
30636;BME280;17400;52.392;9.750;2023-07-02T12:48:07;100185.44;;;22.26;42.50
30636;BME280;17400;52.392;9.750;2023-07-02T12:50:38;100185.16;;;22.57;43.10
30636;BME280;17400;52.392;9.750;2023-07-02T12:53:06;100193.84;;;22.74;42.73
30636;BME280;17400;52.392;9.750;2023-07-02T12:55:34;100193.44;;;22.57;41.99
30636;BME280;17400;52.392;9.750;2023-07-02T12:58:02;100199.78;;;22.23;41.70